createdAt,value
2022-09-28T00:00:01.822Z,22.40
2022-09-28T00:05:26.169Z,20.50
2022-09-28T00:10:27.245Z,20.80
2022-09-28T00:20:29.702Z,20.10
2022-09-28T00:30:32.740Z,21.20
2022-09-28T00:35:34.209Z,20.50
2022-09-28T00:40:42.026Z,20.60
2022-09-28T00:45:44.423Z,19.30
2022-09-28T00:50:46.249Z,18.40
2022-09-28T00:55:53.922Z,20.20
2022-09-28T01:00:58.446Z,22.30
2022-09-28T01:06:03.385Z,20.40
2022-09-28T01:11:04.899Z,15.10
2022-09-28T01:16:26.735Z,13.70
2022-09-28T01:21:28.044Z,11.40
2022-09-28T01:31:34.414Z,8.50
2022-09-28T01:36:45.658Z,6.70
2022-09-28T01:46:52.943Z,5.30
2022-09-28T01:52:12.563Z,5.30
2022-09-28T01:57:20.823Z,5.20
2022-09-28T02:02:29.405Z,7.20
2022-09-28T02:07:37.637Z,6.70
2022-09-28T02:12:45.392Z,8.60
2022-09-28T02:17:47.036Z,8.50
2022-09-28T02:22:55.263Z,4.70
2022-09-28T02:28:04.279Z,2.10
2022-09-28T02:33:28.050Z,1.60
2022-09-28T02:38:32.441Z,7.50
2022-09-28T02:44:04.715Z,3.50
2022-09-28T02:49:43.695Z,3.70
2022-09-28T02:55:16.840Z,2.10
2022-09-28T03:00:21.960Z,4.30
2022-09-28T03:05:48.454Z,3.30
2022-09-28T03:11:04.726Z,3.20
2022-09-28T03:16:12.264Z,4.90
2022-09-28T03:21:14.984Z,2.50
2022-09-28T03:26:16.247Z,2.80
2022-09-28T03:31:17.388Z,2.40
2022-09-28T03:36:18.965Z,2.90
2022-09-28T03:41:20.756Z,2.40
2022-09-28T03:46:21.924Z,2.20
2022-09-28T03:51:23.141Z,2.60
2022-09-28T04:01:25.331Z,3.90
2022-09-28T04:06:26.854Z,3.30
2022-09-28T04:11:42.874Z,2.50
2022-09-28T04:21:52.443Z,2.10
2022-09-28T04:27:13.435Z,5.80
2022-09-28T04:32:14.479Z,4.30
2022-09-28T04:37:15.605Z,3.20
2022-09-28T04:47:17.814Z,3.80
2022-09-28T04:57:20.456Z,6.60
2022-09-28T05:02:21.881Z,3.90
2022-09-28T05:12:24.519Z,6.70
2022-09-28T05:17:25.679Z,10.40
2022-09-28T05:27:27.711Z,5.20
2022-09-28T05:32:29.203Z,15.20
2022-09-28T05:42:31.655Z,9.40
2022-09-28T05:52:38.222Z,6.30
2022-09-28T05:57:40.291Z,6.40
2022-09-28T06:07:42.712Z,9.60
2022-09-28T06:12:44.795Z,6.20
2022-09-28T06:17:46.063Z,8.10
2022-09-28T06:22:51.100Z,5.90
2022-09-28T06:27:57.462Z,8.70
2022-09-28T06:33:00.890Z,6.60
2022-09-28T06:38:02.371Z,6.10
2022-09-28T06:43:09.513Z,9.60
2022-09-28T06:48:10.882Z,13.20
2022-09-28T06:53:13.575Z,19.60
2022-09-28T06:58:17.071Z,12.70
2022-09-28T07:03:20.886Z,9.20
2022-09-28T07:08:28.067Z,8.00
2022-09-28T07:13:48.779Z,5.60
2022-09-28T07:18:50.575Z,3.50
2022-09-28T07:28:55.639Z,4.30
2022-09-28T07:33:58.044Z,5.40
2022-09-28T07:38:59.112Z,6.20
2022-09-28T07:49:09.787Z,10.90
2022-09-28T07:54:13.483Z,8.40
2022-09-28T08:04:19.747Z,9.60
2022-09-28T08:09:20.816Z,17.00
2022-09-28T08:19:24.203Z,7.10
2022-09-28T08:24:30.174Z,9.20
2022-09-28T08:29:31.264Z,8.10
2022-09-28T08:34:33.450Z,7.80
2022-09-28T08:39:35.291Z,11.10
2022-09-28T08:44:47.303Z,7.50
2022-09-28T08:49:49.522Z,7.50
2022-09-28T08:54:53.747Z,8.60
2022-09-28T08:59:57.679Z,8.40
2022-09-28T09:05:01.979Z,10.80
2022-09-28T09:10:35.532Z,8.30
2022-09-28T09:16:01.863Z,7.20
2022-09-28T09:21:15.157Z,8.70
2022-09-28T09:26:26.441Z,7.10
2022-09-28T09:32:04.646Z,7.20
2022-09-28T09:37:24.448Z,6.10
2022-09-28T09:42:44.165Z,6.40
2022-09-28T09:47:53.009Z,6.40
2022-09-28T09:53:04.136Z,5.80
2022-09-28T09:58:25.816Z,5.70
2022-09-28T10:03:31.900Z,7.40
2022-09-28T10:08:57.693Z,5.40
2022-09-28T10:13:58.964Z,6.70
2022-09-28T10:19:00.414Z,6.10
2022-09-28T10:24:01.990Z,8.60
2022-09-28T10:29:10.811Z,5.30
2022-09-28T10:34:14.344Z,5.60
2022-09-28T10:39:28.384Z,6.40
2022-09-28T10:44:33.126Z,5.70
2022-09-28T10:49:46.608Z,5.50
2022-09-28T10:54:52.896Z,6.10
2022-09-28T10:59:54.090Z,13.90
2022-09-28T11:05:00.622Z,19.50
2022-09-28T11:10:03.370Z,17.40
2022-09-28T11:15:06.694Z,6.90
2022-09-28T11:20:28.208Z,6.10
2022-09-28T11:25:30.608Z,3.80
2022-09-28T11:30:41.648Z,4.40
2022-09-28T11:35:59.462Z,4.00
2022-09-28T11:41:22.426Z,8.60
2022-09-28T11:46:32.952Z,10.80
2022-09-28T11:51:36.872Z,14.70
2022-09-28T11:56:41.850Z,18.40
2022-09-28T12:02:12.969Z,11.10
2022-09-28T12:07:38.955Z,6.30
2022-09-28T12:12:56.922Z,12.00
2022-09-28T12:18:05.348Z,6.70
2022-09-28T12:23:14.541Z,4.70
2022-09-28T12:28:41.334Z,4.70
2022-09-28T12:33:47.163Z,6.50
2022-09-28T12:39:23.951Z,4.90
2022-09-28T12:44:41.085Z,4.40
2022-09-28T12:50:37.435Z,5.20
2022-09-28T12:55:35.614Z,4.60
2022-09-28T13:00:58.807Z,4.40
2022-09-28T13:06:25.000Z,4.80
2022-09-28T13:11:40.936Z,4.80
2022-09-28T13:17:19.513Z,4.10
2022-09-28T13:22:35.309Z,2.90
2022-09-28T13:27:45.702Z,3.70
2022-09-28T13:32:49.148Z,3.60
2022-09-28T13:38:16.776Z,2.70
2022-09-28T13:43:30.994Z,4.10
2022-09-28T13:48:58.459Z,5.20
2022-09-28T13:54:16.587Z,3.30
2022-09-28T13:59:28.215Z,2.50
2022-09-28T14:04:54.280Z,7.20
2022-09-28T14:10:20.339Z,3.70
2022-09-28T14:15:42.033Z,3.30
2022-09-28T14:20:59.358Z,5.60
2022-09-28T14:26:40.897Z,10.50
2022-09-28T14:31:43.026Z,12.20
2022-09-28T14:37:07.526Z,15.70
2022-09-28T14:42:16.622Z,14.90
2022-09-28T14:47:32.762Z,12.80
2022-09-28T14:53:12.793Z,14.80
2022-09-28T14:58:19.390Z,23.90
2022-09-28T15:03:22.341Z,14.60
2022-09-28T15:08:35.322Z,19.30
2022-09-28T15:13:40.191Z,18.40
2022-09-28T15:19:23.955Z,7.20
2022-09-28T15:24:32.858Z,6.80
2022-09-28T15:29:35.250Z,8.50
2022-09-28T15:34:55.414Z,7.00
2022-09-28T15:39:59.206Z,7.70
2022-09-28T15:45:22.195Z,6.10
2022-09-28T15:50:32.287Z,5.90
2022-09-28T15:55:38.728Z,7.70
2022-09-28T16:00:40.901Z,7.50
2022-09-28T16:05:59.924Z,6.90
2022-09-28T16:11:20.056Z,9.20
2022-09-28T16:16:30.368Z,12.80
2022-09-28T16:21:41.809Z,9.30
2022-09-28T16:26:43.316Z,16.60
2022-09-28T16:31:52.093Z,15.50
2022-09-28T16:36:54.742Z,28.60
2022-09-28T16:42:02.594Z,32.70
2022-09-28T16:47:06.862Z,107.30
2022-09-28T16:52:11.768Z,98.50
2022-09-28T16:57:14.431Z,92.00
2022-09-28T17:02:42.209Z,38.50
2022-09-28T17:07:39.882Z,26.10
2022-09-28T17:12:41.259Z,40.70
2022-09-28T17:17:42.366Z,30.30
2022-09-28T17:27:46.940Z,17.60
2022-09-28T17:32:48.841Z,17.10
2022-09-28T17:37:49.928Z,13.40
2022-09-28T17:47:55.608Z,21.00
2022-09-28T17:52:59.041Z,20.90
2022-09-28T17:58:01.515Z,23.50
2022-09-28T18:03:02.751Z,22.70
2022-09-28T18:08:06.015Z,21.20
2022-09-28T18:13:07.346Z,25.80
2022-09-28T18:18:09.673Z,97.50
2022-09-28T18:23:11.070Z,29.50
2022-09-28T18:28:12.968Z,17.50
2022-09-28T18:33:15.224Z,16.70
2022-09-28T18:38:16.701Z,21.20
2022-09-28T18:43:17.832Z,22.30
2022-09-28T18:53:20.142Z,22.90
2022-09-28T18:58:21.318Z,25.40
2022-09-28T19:08:27.572Z,19.30
2022-09-28T19:13:29.031Z,20.10
2022-09-28T19:18:30.573Z,20.40
2022-09-28T19:23:32.450Z,22.70
2022-09-28T19:28:34.133Z,19.50
2022-09-28T19:33:36.389Z,21.50
2022-09-28T19:38:38.620Z,28.20
2022-09-28T19:43:43.395Z,18.90
2022-09-28T19:48:44.584Z,21.40
2022-09-28T19:58:46.777Z,13.80
2022-09-28T20:08:49.599Z,10.20
2022-09-28T20:13:54.657Z,9.00
2022-09-28T20:18:59.858Z,7.60
2022-09-28T20:24:01.312Z,6.00
2022-09-28T20:29:06.850Z,6.10
2022-09-28T20:34:09.031Z,6.30
2022-09-28T20:39:10.986Z,7.20
2022-09-28T20:44:12.122Z,4.50
2022-09-28T20:54:14.459Z,5.50
2022-09-28T20:59:15.835Z,5.30
2022-09-28T21:09:18.255Z,5.00
2022-09-28T21:14:20.497Z,5.70
2022-09-28T21:19:23.499Z,7.80
2022-09-28T21:24:24.772Z,5.20
2022-09-28T21:29:26.084Z,6.60
2022-09-28T21:34:27.174Z,6.50
2022-09-28T21:44:29.413Z,6.10
2022-09-28T21:49:30.849Z,5.80
2022-09-28T21:59:34.958Z,6.10
2022-09-28T22:09:37.205Z,5.10
2022-09-28T22:19:40.913Z,9.70
2022-09-28T22:24:42.103Z,9.50
2022-09-28T22:34:44.959Z,7.90
2022-09-28T22:44:48.182Z,6.60
2022-09-28T22:49:49.342Z,5.80
2022-09-28T23:04:52.871Z,5.90
2022-09-28T23:14:58.256Z,7.20
2022-09-28T23:25:00.448Z,6.90
2022-09-28T23:30:01.589Z,5.30
2022-09-28T23:35:03.131Z,6.70
2022-09-28T23:40:06.147Z,7.20
2022-09-28T23:45:07.945Z,6.60
2022-09-28T23:50:09.148Z,5.80
